Terminal Aerodrome Forecast
Issued by NWS

Home | Current Version | Previous Version | Text Only | Print | Product List | Glossary On
Versions: 1 2 3 4 5 6 7 8 9 10 11 12 13
805
FTPA31 PHFO 060520
TAFHOG
TAF
PHOG 060520Z 0606/0706 VRB05KT P6SM FEW025 SCT045
     FM062000 01010KT P6SM VCSH SCT030 BKN050
     FM070500 VRB05KT P6SM VCSH SCT025 BKN045
      AMD LTD TO VIS AND WIND 0609/0616=

USA.gov is the U.S. government's official web portal to all federal, state and local government web resources and services.